ADDS METAR Data INFO
IDs: Format: Raw Decoded Include TAF

Data at: 0351 UTC 18 Oct 2017

KRWF 180253Z AUTO 19008KT 10SM CLR 14/04 A2989 RMK AO2 SLP122 T01390039 58003
KRWF 180153Z AUTO 19008KT 10SM CLR 15/04 A2988 RMK AO2 SLP122 T01500039
KRWF 180053Z AUTO 19008KT 10SM CLR 17/04 A2990 RMK AO2 SLP126 T01670039
KRWF 172353Z AUTO 19007KT 10SM CLR 18/04 A2989 RMK AO2 SLP126 T01830044 10250 20183 56007
KRWF 172253Z AUTO 21004KT 10SM CLR 23/03 A2989 RMK AO2 SLP123 T02280028
KRWF 172153Z AUTO 25007KT 10SM CLR 24/01 A2990 RMK AO2 SLP126 T02440011
KRWF 172053Z AUTO 22010G16KT 10SM CLR 24/02 A2992 RMK AO2 SLP130 T02440022 56026
KRWF 171953Z AUTO 25011KT 10SM CLR 24/01 A2993 RMK AO2 SLP136 T02440006
KRWF 171853Z AUTO 24007KT 10SM CLR 23/03 A2996 RMK AO2 SLP146 T02330033
KRWF 171753Z AUTO 22006KT 10SM CLR 22/03 A3000 RMK AO2 SLP157 T02170033 10217 20050 58008
KRWF 171653Z AUTO 22004KT 10SM CLR 18/04 A3001 RMK AO2 SLP163 T01830044
KRWF 171553Z AUTO 00000KT 10SM CLR 15/05 A3002 RMK AO2 SLP166 T01500050
KRWF 171453Z AUTO 25003KT 10SM CLR 12/04 A3002 RMK AO2 SLP169 T01170044 53005
KRWF 171353Z AUTO 22003KT 10SM CLR 08/04 A3002 RMK AO2 SLP168 T00780039
KRWF 171253Z AUTO 00000KT 10SM CLR 06/02 A3001 RMK AO2 SLP166 T00560022
KRWF 171153Z AUTO 21003KT 10SM CLR 06/03 A3001 RMK AO2 SLP163 T00560028 10094 20056 53007 $
KRWF 171053Z AUTO 22004KT 10SM CLR 07/03 A2999 RMK AO2 SLP158 T00720028 $
KRWF 170953Z AUTO 22005KT 10SM CLR 07/03 A2999 RMK AO2 SLP155 T00670028 $
KRWF 170853Z AUTO 22005KT 10SM CLR 08/03 A2998 RMK AO2 SLP154 T00780033 50005 $
KRWF 170753Z AUTO 23004KT 10SM CLR 08/03 A2999 RMK AO2 SLP156 T00780033 $
KRWF 170653Z AUTO 21005KT 10SM CLR 08/03 A2998 RMK AO2 SLP152 T00780033 $
KRWF 170553Z AUTO 21004KT 10SM CLR 09/03 A2997 RMK AO2 SLP149 T00940033 10161 20094 402170011 50004 $
KRWF 170453Z AUTO 23005KT 10SM CLR 11/03 A2997 RMK AO2 SLP149 T01110033 $
KRWF 170353Z AUTO 23007KT 10SM CLR 12/03 A2997 RMK AO2 SLP151 T01170033 $
KRWF 170253Z AUTO 22011KT 10SM CLR 12/03 A2995 RMK AO2 SLP147 T01220033 58006 $
KRWF 170153Z AUTO 20010KT 10SM CLR 13/03 A2996 RMK AO2 SLP151 T01280033 $
KRWF 170053Z AUTO 20009KT 10SM CLR 14/03 A2997 RMK AO2 SLP154 T01440033 $
KRWF 162353Z AUTO 19008KT 10SM CLR 16/03 A2997 RMK AO2 SLP154 T01610028 10217 20161 $
KRWF 162253Z AUTO 21009KT 10SM CLR 19/02 A2999 RMK AO2 SLP157 T01940022 $
KRWF 162153Z AUTO 22010KT 10SM CLR 21/01 A2999 RMK AO2 SLP159 T02110011 $
KRWF 162053Z AUTO 20014G21KT 10SM CLR 21/01 A3000 RMK AO2 SLP162 T02110006 56042
KRWF 161953Z AUTO 20016G22KT 10SM CLR 21/01 A3003 RMK AO2 SLP172 T02060011
KRWF 161853Z AUTO 21017G22KT 10SM CLR 19/01 A3008 RMK AO2 SLP188 T01940006
KRWF 161753Z AUTO 22017G23KT 10SM CLR 18/01 A3013 RMK AO2 SLP206 T01830006 10183 20011 58028
KRWF 161653Z AUTO 20014KT 10SM CLR 16/01 A3017 RMK AO2 SLP220 T01610011
KRWF 161553Z AUTO 20012KT 10SM CLR 13/01 A3019 RMK AO2 SLP230 T01330011